createdAt,value
2022-10-22T00:00:01.599Z,41.57
2022-10-22T00:02:28.245Z,41.42
2022-10-22T00:04:56.964Z,41.40
2022-10-22T00:09:52.437Z,41.20
2022-10-22T00:12:19.348Z,41.34
2022-10-22T00:14:46.052Z,41.45
2022-10-22T00:17:13.032Z,41.42
2022-10-22T00:19:40.028Z,41.11
2022-10-22T00:22:08.513Z,41.44
2022-10-22T00:24:37.139Z,41.31
2022-10-22T00:27:04.291Z,41.30
2022-10-22T00:29:31.491Z,40.93
2022-10-22T00:31:58.574Z,41.28
2022-10-22T00:34:26.776Z,41.30
2022-10-22T00:36:53.695Z,41.36
2022-10-22T00:39:22.572Z,41.20
2022-10-22T00:41:51.672Z,40.88
2022-10-22T00:44:55.952Z,41.08
2022-10-22T00:47:24.315Z,40.95
2022-10-22T00:49:53.761Z,41.00
2022-10-22T00:52:21.361Z,41.17
2022-10-22T00:54:48.070Z,40.81
2022-10-22T00:57:16.769Z,40.78
2022-10-22T00:59:43.422Z,41.13
2022-10-22T01:02:09.992Z,40.78
2022-10-22T01:04:36.581Z,40.98
2022-10-22T01:07:03.657Z,40.78
2022-10-22T01:09:30.079Z,40.98
2022-10-22T01:12:02.535Z,41.02
2022-10-22T01:14:45.584Z,40.95
2022-10-22T01:17:24.965Z,40.80
2022-10-22T01:19:51.677Z,41.01
2022-10-22T01:22:37.889Z,40.88
2022-10-22T01:25:32.748Z,41.15
2022-10-22T01:30:19.346Z,40.77
2022-10-22T01:32:56.849Z,40.90
2022-10-22T01:35:28.716Z,40.89
2022-10-22T01:38:01.920Z,40.93
2022-10-22T01:40:29.507Z,40.91
2022-10-22T01:43:01.515Z,40.94
2022-10-22T01:45:39.815Z,40.94
2022-10-22T01:48:13.366Z,40.96
2022-10-22T01:50:45.917Z,40.81
2022-10-22T01:53:41.743Z,41.08
2022-10-22T01:56:54.495Z,41.35
2022-10-22T01:59:58.967Z,40.89
2022-10-22T02:02:56.393Z,40.86
2022-10-22T02:05:43.347Z,41.20
2022-10-22T02:08:15.908Z,41.00
2022-10-22T02:10:44.768Z,40.96
2022-10-22T02:13:19.409Z,41.04
2022-10-22T02:15:48.983Z,40.80
2022-10-22T02:18:18.085Z,40.86
2022-10-22T02:20:44.688Z,41.07
2022-10-22T02:23:12.013Z,41.03
2022-10-22T02:25:41.780Z,41.00
2022-10-22T02:28:35.233Z,41.12
2022-10-22T02:31:11.251Z,40.54
2022-10-22T02:33:47.275Z,40.88
2022-10-22T02:36:15.854Z,40.56
2022-10-22T02:38:43.157Z,40.96
2022-10-22T02:41:10.194Z,40.71
2022-10-22T02:43:49.921Z,40.58
2022-10-22T02:46:16.789Z,40.58
2022-10-22T02:48:43.272Z,40.89
2022-10-22T02:51:09.805Z,40.72
2022-10-22T02:53:36.362Z,40.81
2022-10-22T02:56:02.987Z,40.74
2022-10-22T02:58:29.471Z,40.71
2022-10-22T03:00:56.121Z,40.57
2022-10-22T03:03:22.745Z,40.79
2022-10-22T03:05:50.959Z,40.54
2022-10-22T03:08:17.702Z,40.49
2022-10-22T03:10:44.357Z,40.78
2022-10-22T03:13:10.891Z,40.85
2022-10-22T03:15:37.761Z,41.12
2022-10-22T03:18:04.267Z,41.00
2022-10-22T03:20:30.786Z,41.38
2022-10-22T03:22:57.696Z,41.08
2022-10-22T03:25:27.133Z,41.45
2022-10-22T03:28:01.348Z,41.56
2022-10-22T03:30:27.869Z,41.56
2022-10-22T03:32:54.384Z,41.50
2022-10-22T03:35:21.152Z,41.71
2022-10-22T03:37:47.826Z,41.99
2022-10-22T03:40:14.751Z,42.16
2022-10-22T03:42:42.111Z,42.55
2022-10-22T03:45:09.244Z,43.02
2022-10-22T03:47:37.344Z,43.33
2022-10-22T03:50:06.264Z,43.59
2022-10-22T03:52:37.729Z,43.91
2022-10-22T03:55:05.781Z,43.96
2022-10-22T03:57:32.408Z,43.94
2022-10-22T04:02:15.520Z,44.50
2022-10-22T04:04:42.127Z,44.21
2022-10-22T04:07:08.833Z,44.30
2022-10-22T04:09:35.654Z,44.16
2022-10-22T04:12:02.389Z,43.97
2022-10-22T04:14:28.945Z,43.67
2022-10-22T04:16:55.500Z,43.74
2022-10-22T04:19:22.123Z,43.57
2022-10-22T04:21:48.767Z,43.49
2022-10-22T04:24:15.484Z,43.54
2022-10-22T04:26:42.439Z,43.17
2022-10-22T04:29:11.987Z,43.44
2022-10-22T04:31:41.861Z,43.18
2022-10-22T04:34:08.406Z,43.13
2022-10-22T04:36:34.962Z,42.98
2022-10-22T04:39:02.040Z,42.97
2022-10-22T04:41:31.890Z,42.98
2022-10-22T04:43:59.314Z,42.93
2022-10-22T04:46:28.422Z,42.53
2022-10-22T04:48:55.035Z,42.57
2022-10-22T04:51:24.222Z,42.49
2022-10-22T04:53:51.061Z,42.71
2022-10-22T04:56:23.011Z,42.53
2022-10-22T04:58:51.681Z,42.48
2022-10-22T05:01:27.012Z,42.58
2022-10-22T05:03:55.792Z,42.12
2022-10-22T05:06:23.278Z,42.42
2022-10-22T05:08:55.757Z,42.47
2022-10-22T05:11:34.885Z,42.16
2022-10-22T05:14:04.424Z,42.30
2022-10-22T05:16:32.748Z,42.06
2022-10-22T05:19:00.841Z,42.25
2022-10-22T05:21:28.285Z,42.02
2022-10-22T05:23:56.074Z,42.24
2022-10-22T05:26:24.977Z,41.87
2022-10-22T05:28:52.276Z,42.10
2022-10-22T05:31:19.443Z,41.78
2022-10-22T05:33:46.765Z,41.67
2022-10-22T05:36:19.493Z,42.07
2022-10-22T05:38:46.075Z,41.92
2022-10-22T05:41:17.651Z,41.82
2022-10-22T05:43:45.134Z,41.89
2022-10-22T05:46:22.191Z,41.67
2022-10-22T05:48:54.657Z,41.81
2022-10-22T05:51:22.696Z,41.61
2022-10-22T05:53:53.409Z,41.97
2022-10-22T05:56:20.895Z,41.63
2022-10-22T05:58:47.706Z,41.89
2022-10-22T06:01:23.783Z,41.53
2022-10-22T06:03:54.115Z,41.71
2022-10-22T06:06:22.290Z,41.69
2022-10-22T06:08:51.088Z,41.22
2022-10-22T06:11:19.857Z,41.21
2022-10-22T06:13:47.172Z,41.33
2022-10-22T06:16:14.689Z,41.19
2022-10-22T06:18:41.269Z,41.02
2022-10-22T06:21:13.509Z,41.23
2022-10-22T06:23:40.299Z,41.23
2022-10-22T06:26:07.915Z,41.33
2022-10-22T06:28:35.198Z,41.03
2022-10-22T06:31:02.620Z,41.01
2022-10-22T06:33:31.197Z,40.84
2022-10-22T06:36:07.590Z,41.17
2022-10-22T06:38:35.067Z,41.14
2022-10-22T06:41:06.479Z,41.17
2022-10-22T06:43:33.056Z,41.22
2022-10-22T06:46:05.221Z,40.96
2022-10-22T06:48:31.724Z,40.98
2022-10-22T06:51:02.816Z,41.21
2022-10-22T06:53:30.224Z,41.08
2022-10-22T06:55:57.331Z,40.81
2022-10-22T06:58:23.936Z,41.08
2022-10-22T07:00:50.452Z,41.10
2022-10-22T07:03:17.076Z,41.07
2022-10-22T07:05:43.556Z,41.03
2022-10-22T07:08:10.250Z,41.08
2022-10-22T07:10:36.812Z,41.02
2022-10-22T07:13:03.344Z,40.91
2022-10-22T07:15:29.852Z,41.13
2022-10-22T07:17:56.588Z,40.64
2022-10-22T07:20:23.088Z,41.02
2022-10-22T07:22:49.694Z,40.73
2022-10-22T07:25:16.339Z,40.87
2022-10-22T07:27:43.247Z,40.71
2022-10-22T07:30:10.184Z,40.87
2022-10-22T07:32:37.174Z,40.87
2022-10-22T07:35:04.585Z,41.08
2022-10-22T07:37:31.210Z,40.82
2022-10-22T07:40:01.332Z,40.95
2022-10-22T07:45:00.941Z,40.68
2022-10-22T07:47:27.432Z,40.82
2022-10-22T07:49:53.968Z,40.68
2022-10-22T07:52:20.593Z,40.98
2022-10-22T07:54:47.184Z,40.64
2022-10-22T07:57:13.668Z,40.67
2022-10-22T07:59:40.224Z,40.71
2022-10-22T08:02:07.133Z,41.03
2022-10-22T08:04:33.714Z,40.90
2022-10-22T08:07:00.939Z,40.86
2022-10-22T08:09:27.593Z,40.62
2022-10-22T08:11:54.701Z,40.88
2022-10-22T08:14:21.369Z,40.94
2022-10-22T08:16:47.975Z,40.71
2022-10-22T08:19:18.713Z,41.00
2022-10-22T08:21:46.111Z,41.17
2022-10-22T08:24:13.554Z,41.09
2022-10-22T08:26:40.736Z,41.09
2022-10-22T08:29:07.768Z,41.39
2022-10-22T08:31:34.859Z,41.41
2022-10-22T08:34:01.462Z,41.30
2022-10-22T08:36:28.172Z,41.31
2022-10-22T08:38:54.774Z,41.40
2022-10-22T08:41:23.418Z,40.92
2022-10-22T08:44:08.720Z,40.74
2022-10-22T08:46:52.486Z,40.11
2022-10-22T08:49:24.617Z,39.63
2022-10-22T08:51:51.525Z,39.48
2022-10-22T08:54:46.065Z,39.44
2022-10-22T08:57:52.201Z,39.13
2022-10-22T09:00:23.148Z,39.02
2022-10-22T09:02:52.520Z,39.05
2022-10-22T09:05:37.825Z,39.31
2022-10-22T09:08:08.650Z,39.34
2022-10-22T09:10:38.257Z,39.46
2022-10-22T09:13:04.879Z,39.33
2022-10-22T09:15:31.624Z,39.66
2022-10-22T09:18:23.303Z,39.49
2022-10-22T09:20:56.426Z,39.74
2022-10-22T09:23:28.815Z,39.88
2022-10-22T09:25:57.801Z,39.78
2022-10-22T09:28:24.409Z,40.00
2022-10-22T09:30:51.473Z,39.71
2022-10-22T09:33:27.037Z,39.60
2022-10-22T09:35:58.085Z,39.49
2022-10-22T09:38:41.296Z,39.49
2022-10-22T09:41:09.220Z,39.63
2022-10-22T09:43:36.136Z,39.75
2022-10-22T09:46:06.364Z,39.67
2022-10-22T09:48:40.116Z,39.84
2022-10-22T09:51:06.639Z,39.50
2022-10-22T09:53:41.561Z,39.47
2022-10-22T09:56:23.953Z,39.63
2022-10-22T09:58:51.286Z,39.70
2022-10-22T10:01:23.804Z,39.56
2022-10-22T10:03:50.407Z,39.55
2022-10-22T10:06:22.446Z,39.58
2022-10-22T10:08:49.516Z,39.37
2022-10-22T10:11:34.232Z,39.67
2022-10-22T10:14:54.574Z,39.75
2022-10-22T10:17:41.465Z,39.47
2022-10-22T10:20:15.882Z,39.43
2022-10-22T10:23:01.168Z,39.32
2022-10-22T10:26:01.143Z,39.47
2022-10-22T10:28:30.392Z,39.73
2022-10-22T10:30:59.870Z,39.75
2022-10-22T10:33:35.369Z,39.69
2022-10-22T10:36:12.836Z,39.68
2022-10-22T10:38:53.665Z,39.70
2022-10-22T10:41:29.792Z,40.16
2022-10-22T10:44:05.624Z,40.47
2022-10-22T10:46:56.676Z,40.85
2022-10-22T10:49:26.334Z,41.40
2022-10-22T10:52:18.966Z,41.33
2022-10-22T10:55:45.819Z,41.48
2022-10-22T10:58:30.212Z,41.65
2022-10-22T11:01:03.788Z,42.22
2022-10-22T11:03:48.714Z,42.58
2022-10-22T11:06:23.010Z,42.86
2022-10-22T11:09:03.061Z,43.15
2022-10-22T11:11:29.669Z,43.45
2022-10-22T11:14:27.909Z,43.76
2022-10-22T11:17:15.962Z,44.11
2022-10-22T11:19:53.784Z,44.67
2022-10-22T11:23:18.025Z,45.02
2022-10-22T11:25:47.741Z,45.03
2022-10-22T11:28:21.142Z,45.44
2022-10-22T11:30:56.462Z,45.85
2022-10-22T11:33:28.753Z,46.03
2022-10-22T11:35:58.646Z,46.17
2022-10-22T11:38:26.437Z,46.23
2022-10-22T11:41:02.469Z,48.75
2022-10-22T11:43:32.801Z,51.43
2022-10-22T11:46:24.611Z,53.13
2022-10-22T11:49:17.069Z,53.98
2022-10-22T11:51:44.534Z,54.25
2022-10-22T11:54:42.680Z,54.31
2022-10-22T11:57:15.125Z,54.13
2022-10-22T11:59:49.686Z,53.64
2022-10-22T12:02:28.221Z,53.10
2022-10-22T12:05:22.324Z,52.48
2022-10-22T12:08:14.853Z,51.65
2022-10-22T12:11:10.559Z,51.24
2022-10-22T12:13:58.621Z,50.85
2022-10-22T12:16:37.760Z,50.62
2022-10-22T12:19:24.380Z,50.51
2022-10-22T12:22:19.360Z,50.27
2022-10-22T12:24:49.494Z,50.20
2022-10-22T12:27:28.252Z,50.24
2022-10-22T12:29:59.377Z,50.24
2022-10-22T12:32:37.690Z,51.39
2022-10-22T12:35:11.673Z,52.64
2022-10-22T12:37:38.683Z,53.10
2022-10-22T12:40:24.116Z,52.98
2022-10-22T12:43:12.418Z,52.48
2022-10-22T12:45:40.016Z,52.06
2022-10-22T12:48:14.301Z,51.96
2022-10-22T12:50:43.771Z,51.27
2022-10-22T12:53:29.661Z,51.05
2022-10-22T12:56:01.268Z,50.82
2022-10-22T12:58:33.323Z,50.51
2022-10-22T13:01:03.398Z,50.42
2022-10-22T13:03:33.524Z,50.13
2022-10-22T13:06:34.598Z,49.74
2022-10-22T13:09:04.023Z,49.65
2022-10-22T13:11:48.206Z,49.06
2022-10-22T13:14:18.177Z,49.29
2022-10-22T13:17:08.404Z,49.87
2022-10-22T13:19:55.272Z,50.67
2022-10-22T13:22:29.764Z,51.44
2022-10-22T13:24:58.958Z,51.61
2022-10-22T13:27:28.220Z,51.32
2022-10-22T13:29:56.477Z,51.27
2022-10-22T13:32:30.590Z,51.31
2022-10-22T13:35:00.761Z,50.92
2022-10-22T13:37:30.723Z,50.55
2022-10-22T13:39:57.300Z,50.87
2022-10-22T13:42:23.877Z,50.65
2022-10-22T13:44:50.730Z,50.50
2022-10-22T13:47:24.003Z,50.35
2022-10-22T13:49:50.850Z,50.38
2022-10-22T13:52:44.427Z,49.81
2022-10-22T13:55:30.665Z,49.76
2022-10-22T13:58:11.145Z,49.59
2022-10-22T14:00:39.722Z,49.30
2022-10-22T14:03:11.153Z,49.20
2022-10-22T14:05:37.935Z,48.90
2022-10-22T14:08:11.897Z,49.03
2022-10-22T14:10:38.949Z,48.65
2022-10-22T14:13:07.812Z,48.49
2022-10-22T14:15:34.691Z,48.51
2022-10-22T14:18:01.578Z,49.07
2022-10-22T14:20:30.544Z,49.24
2022-10-22T14:23:11.177Z,49.21
2022-10-22T14:25:37.757Z,48.96
2022-10-22T14:28:04.388Z,49.14
2022-10-22T14:30:32.805Z,48.89
2022-10-22T14:32:59.384Z,48.35
2022-10-22T14:35:26.139Z,48.33
2022-10-22T14:37:52.768Z,48.23
2022-10-22T14:40:20.854Z,48.10
2022-10-22T14:42:48.837Z,48.06
2022-10-22T14:45:23.016Z,47.95
2022-10-22T14:47:51.161Z,47.92
2022-10-22T14:50:18.745Z,47.88
2022-10-22T14:52:45.553Z,47.46
2022-10-22T14:55:14.532Z,47.54
2022-10-22T14:57:41.500Z,47.46
2022-10-22T15:00:18.761Z,47.12
2022-10-22T15:02:48.328Z,46.98
2022-10-22T15:05:15.795Z,46.93
2022-10-22T15:07:42.681Z,46.82
2022-10-22T15:10:09.980Z,46.50
2022-10-22T15:12:36.771Z,46.65
2022-10-22T15:15:04.100Z,46.58
2022-10-22T15:17:31.004Z,46.53
2022-10-22T15:20:00.472Z,46.58
2022-10-22T15:22:28.502Z,46.49
2022-10-22T15:24:55.119Z,46.22
2022-10-22T15:27:21.674Z,46.31
2022-10-22T15:29:48.244Z,46.01
2022-10-22T15:32:14.921Z,46.27
2022-10-22T15:34:41.395Z,46.13
2022-10-22T15:37:11.361Z,46.03
2022-10-22T15:39:42.247Z,46.01
2022-10-22T15:42:09.820Z,45.76
2022-10-22T15:44:36.692Z,45.76
2022-10-22T15:47:04.910Z,45.59
2022-10-22T15:49:33.486Z,45.58
2022-10-22T15:52:00.140Z,45.48
2022-10-22T15:54:28.610Z,45.64
2022-10-22T15:56:56.532Z,45.58
2022-10-22T15:59:23.105Z,45.69
2022-10-22T16:01:50.161Z,45.37
2022-10-22T16:04:17.164Z,45.60
2022-10-22T16:06:47.310Z,45.26
2022-10-22T16:09:17.185Z,45.52
2022-10-22T16:11:44.925Z,45.28
2022-10-22T16:14:12.827Z,45.16
2022-10-22T16:16:43.375Z,45.03
2022-10-22T16:19:12.768Z,45.05
2022-10-22T16:21:39.794Z,45.01
2022-10-22T16:24:07.871Z,45.16
2022-10-22T16:26:35.738Z,44.96
2022-10-22T16:29:02.840Z,45.11
2022-10-22T16:31:29.336Z,44.80
2022-10-22T16:33:56.219Z,44.82
2022-10-22T16:36:22.804Z,45.15
2022-10-22T16:38:49.696Z,44.73
2022-10-22T16:41:17.897Z,45.04
2022-10-22T16:43:48.324Z,45.35
2022-10-22T16:46:20.058Z,46.02
2022-10-22T16:48:50.817Z,45.96
2022-10-22T16:51:21.107Z,46.68
2022-10-22T16:53:48.045Z,46.65
2022-10-22T16:56:16.238Z,46.59
2022-10-22T16:58:50.888Z,46.99
2022-10-22T17:01:19.488Z,46.76
2022-10-22T17:03:46.563Z,46.63
2022-10-22T17:06:14.200Z,46.79
2022-10-22T17:08:41.834Z,46.62
2022-10-22T17:11:17.183Z,46.75
2022-10-22T17:13:45.910Z,46.75
2022-10-22T17:16:15.497Z,46.50
2022-10-22T17:21:17.447Z,46.55
2022-10-22T17:23:44.324Z,46.87
2022-10-22T17:26:20.925Z,47.66
2022-10-22T17:28:49.013Z,48.17
2022-10-22T17:31:16.003Z,49.24
2022-10-22T17:33:43.208Z,49.54
2022-10-22T17:36:12.665Z,49.42
2022-10-22T17:38:40.969Z,49.71
2022-10-22T17:41:13.807Z,49.41
2022-10-22T17:43:41.484Z,49.12
2022-10-22T17:46:11.185Z,48.84
2022-10-22T17:48:37.821Z,48.71
2022-10-22T17:51:11.687Z,48.36
2022-10-22T17:53:46.019Z,48.12
2022-10-22T17:56:17.376Z,48.07
2022-10-22T17:58:44.272Z,47.98
2022-10-22T18:01:21.841Z,48.14
2022-10-22T18:03:49.115Z,47.76
2022-10-22T18:06:15.679Z,47.91
2022-10-22T18:08:42.455Z,47.38
2022-10-22T18:11:11.209Z,47.52
2022-10-22T18:13:38.232Z,48.06
2022-10-22T18:16:05.925Z,47.59
2022-10-22T18:18:34.707Z,47.78
2022-10-22T18:21:01.790Z,47.51
2022-10-22T18:23:28.652Z,47.47
2022-10-22T18:25:55.800Z,47.83
2022-10-22T18:28:22.535Z,47.55
2022-10-22T18:30:49.248Z,47.73
2022-10-22T18:33:17.980Z,47.82
2022-10-22T18:35:46.416Z,47.43
2022-10-22T18:38:13.427Z,47.45
2022-10-22T18:40:46.816Z,47.32
2022-10-22T18:43:13.680Z,47.43
2022-10-22T18:45:44.495Z,47.26
2022-10-22T18:48:14.459Z,47.46
2022-10-22T18:50:41.587Z,47.21
2022-10-22T18:53:08.796Z,46.89
2022-10-22T18:55:39.654Z,47.29
2022-10-22T18:58:06.945Z,47.12
2022-10-22T19:00:35.525Z,47.52
2022-10-22T19:03:03.288Z,48.07
2022-10-22T19:05:29.975Z,48.46
2022-10-22T19:07:56.670Z,48.34
2022-10-22T19:12:35.373Z,48.99
2022-10-22T19:15:01.988Z,48.79
2022-10-22T19:17:28.509Z,49.23
2022-10-22T19:19:55.052Z,48.97
2022-10-22T19:22:21.609Z,49.30
2022-10-22T19:24:49.840Z,49.36
2022-10-22T19:27:17.195Z,49.79
2022-10-22T19:29:44.966Z,49.64
2022-10-22T19:32:14.364Z,49.91
2022-10-22T19:34:41.206Z,49.57
2022-10-22T19:37:08.031Z,49.58
2022-10-22T19:39:34.926Z,49.20
2022-10-22T19:42:01.662Z,49.16
2022-10-22T19:44:28.309Z,48.73
2022-10-22T19:46:54.941Z,48.94
2022-10-22T19:49:23.003Z,48.98
2022-10-22T19:51:49.937Z,49.13
2022-10-22T19:54:18.703Z,49.24
2022-10-22T19:56:46.712Z,49.25
2022-10-22T19:59:14.802Z,49.32
2022-10-22T20:01:42.396Z,49.11
2022-10-22T20:04:16.303Z,49.16
2022-10-22T20:06:43.524Z,49.26
2022-10-22T20:09:11.119Z,49.23
2022-10-22T20:11:41.401Z,49.09
2022-10-22T20:14:07.897Z,48.76
2022-10-22T20:16:36.022Z,48.53
2022-10-22T20:19:05.539Z,48.33
2022-10-22T20:21:33.360Z,48.46
2022-10-22T20:24:00.211Z,47.87
2022-10-22T20:26:28.530Z,47.70
2022-10-22T20:28:56.389Z,47.89
2022-10-22T20:31:26.963Z,47.56
2022-10-22T20:33:56.774Z,47.21
2022-10-22T20:36:24.192Z,47.36
2022-10-22T20:38:51.869Z,48.05
2022-10-22T20:41:23.131Z,48.03
2022-10-22T20:43:51.265Z,48.23
2022-10-22T20:46:20.780Z,48.23
2022-10-22T20:48:51.138Z,48.25
2022-10-22T20:51:17.824Z,48.24
2022-10-22T20:53:44.342Z,48.07
2022-10-22T20:56:11.547Z,48.00
2022-10-22T20:58:38.824Z,47.79
2022-10-22T21:01:10.460Z,47.62
2022-10-22T21:03:37.842Z,47.80
2022-10-22T21:06:05.840Z,47.52
2022-10-22T21:08:32.705Z,47.56
2022-10-22T21:10:59.299Z,47.36
2022-10-22T21:13:25.968Z,47.43
2022-10-22T21:15:52.471Z,46.91
2022-10-22T21:18:19.094Z,47.25
2022-10-22T21:20:45.571Z,46.83
2022-10-22T21:23:15.128Z,47.06
2022-10-22T21:25:43.383Z,46.95
2022-10-22T21:28:10.942Z,46.76
2022-10-22T21:30:44.642Z,46.63
2022-10-22T21:33:12.468Z,46.38
2022-10-22T21:35:39.060Z,46.57
2022-10-22T21:38:07.783Z,46.47
2022-10-22T21:40:37.370Z,46.59
2022-10-22T21:43:03.976Z,46.36
2022-10-22T21:50:18.617Z,46.37
2022-10-22T21:52:45.221Z,46.03
2022-10-22T21:55:11.701Z,45.90
2022-10-22T21:57:38.232Z,45.87
2022-10-22T22:00:07.374Z,45.98
2022-10-22T22:02:34.317Z,46.00
2022-10-22T22:05:00.853Z,45.96
2022-10-22T22:07:27.453Z,46.02
2022-10-22T22:09:53.977Z,45.96
2022-10-22T22:12:21.170Z,45.91
2022-10-22T22:14:47.833Z,45.61
2022-10-22T22:17:16.405Z,45.52
2022-10-22T22:19:42.944Z,45.81
2022-10-22T22:22:09.561Z,45.74
2022-10-22T22:24:37.624Z,45.62
2022-10-22T22:27:04.337Z,45.35
2022-10-22T22:29:30.823Z,45.52
2022-10-22T22:31:57.461Z,45.21
2022-10-22T22:34:23.992Z,45.18
2022-10-22T22:36:50.594Z,45.37
2022-10-22T22:39:21.257Z,45.53
2022-10-22T22:41:47.987Z,45.26
2022-10-22T22:44:15.459Z,45.21
2022-10-22T22:46:42.487Z,45.15
2022-10-22T22:49:09.538Z,45.23
2022-10-22T22:51:36.261Z,45.28
2022-10-22T22:54:02.879Z,44.94
2022-10-22T22:56:31.723Z,44.92
2022-10-22T22:58:58.564Z,44.82
2022-10-22T23:01:37.379Z,44.73
2022-10-22T23:04:11.652Z,45.17
2022-10-22T23:06:39.502Z,44.59
2022-10-22T23:09:09.318Z,44.91
2022-10-22T23:11:36.361Z,44.95
2022-10-22T23:14:04.935Z,44.64
2022-10-22T23:16:33.924Z,44.76
2022-10-22T23:19:01.166Z,44.77
2022-10-22T23:21:32.902Z,44.84
2022-10-22T23:24:01.981Z,44.72
2022-10-22T23:26:31.753Z,44.40
2022-10-22T23:29:02.865Z,44.54
2022-10-22T23:31:29.847Z,44.41
2022-10-22T23:33:56.408Z,44.70
2022-10-22T23:36:23.161Z,44.47
2022-10-22T23:38:50.287Z,44.31
2022-10-22T23:41:17.471Z,44.31
2022-10-22T23:43:44.049Z,44.54
2022-10-22T23:46:12.862Z,44.51
2022-10-22T23:48:40.173Z,44.41
2022-10-22T23:51:12.252Z,44.10
2022-10-22T23:53:39.119Z,44.44
2022-10-22T23:56:11.117Z,44.05
2022-10-22T23:58:39.550Z,44.39
